Terminal Aerodrome Forecast
Issued by NWS

Home | Current Version | Previous Version | Text Only | Print | Product List | Glossary On
Versions: 1 2 3 4 5 6 7 8 9 10 11 12 13 14 15 16 17
000
FTUS45 KPSR 212200 AAB
TAFBLH
TAF AMD
KBLH 212220Z 2122/2218 11015KT 6SM -TSRA SCT080CB BKN100
      TEMPO 2122/2124 VRB20G40KT 3SM +TSRA BKN080CB
     FM220000 20010KT P6SM VCTS BKN080CB
     FM220200 21006KT P6SM SCT090 BKN150
     FM221500 17008KT P6SM FEW100 SCT200=

USA.gov is the U.S. government's official web portal to all federal, state and local government web resources and services.